Ferndale, New York
Current Conditions -  °F | °C
As of 9:15 AM on Monday 22 Dec 2014 (Local Time) from KMSV Reporting Station
Overcast Overcast  
Wind Chill: 22°   Ceiling: 300
Heat Index: 28°   Visibility: 3mi
Dew Point: 28°   Wind: 6mph
Humidity: 100%   Direction: 80°E
Pressure: 30.29"   Gusts: NA
Location:  41.77°N, 74.74°W
Report Text: KMSV 221415Z AUTO 08005KT 3SM OVC003 M02/M02 A3029 RMK AO1
Loading
Personal Weather Stations






























Interactive Weather Map New forecast layout! Learn more

10-Day Weather Forecast

Advertisements
Track Severe Weather on mobile